Главная страница
METAR-TAF:

METAR-TAF

Аэропорты :

Батуми, Грузия

широта: 41-36-37N, долгота: 041-35-58E, высота над уровнем моря: 32 м

Текущие метеонаблюдения

Эта сводка был подготовлена 8 минут назад, в 03:30 UTC
Ветер 13 Узел от юго-восточный
Температура 20°C
Влажность 83%
Давление 1012 hPa
Видимость 10 км и более
небольшая облачность на высоте 5800 фута

METAR: UGSB 150330Z 13013KT 9999 FEW058 20/17 Q1012 NOSIG

Время: 07:38 (03:38 UTC)

Прогноз

Эта сводка был подготовлена 4 часа и 38 минут назад, в 23:00 UTC
Прогноз действительный с 15-го 00 UTC до 15-го 24 UTC
Ветер 11 Узел от юго-восточный
Видимость 10 км и более
Рассеянная облачность на высоте 6500 фута
изменения
С 15-го 06 UTC до 15-го 08 UTC
Ветер 6 Узел от западно-северо-западный
изменения
С 15-го 17 UTC до 15-го 19 UTC
Ветер 10 Узел от юго-восточный

TAF: UGSB 142300Z 1500/1524 13011KT 9999 BKN065 TX26/1511Z TN21/1500Z BECMG 1506/1508 30006KT BECMG 1517/1519 13010KT

Метеонаблюдения и прогнозы для более 4000 аэропортов (сводки METAR и TAF).

Имеющиеся станции представлены на карте желтыми и красными точками.

Чтобы увидеть название станции, наведите на нее мышь.

Затем щелкните, чтобы увидеть метеонаблюдения и метеопрогнозы.

Управление картой: чтобы увеличить масштаб, щелкните зеленые кнопки с черным крестиком; чтобы уменьшить масштаб, щелкните зеленую кнопку с тире; для просмотра соседних карт щелкайте зеленые стрелки.


METAR-TAF: